createdAt,value
2018-12-10T00:00:46.089Z,5.90
2018-12-10T00:03:19.968Z,6.00
2018-12-10T00:05:47.437Z,6.00
2018-12-10T00:08:14.892Z,6.10
2018-12-10T00:10:42.463Z,6.10
2018-12-10T00:13:09.927Z,6.10
2018-12-10T00:15:37.479Z,6.10
2018-12-10T00:18:05.048Z,6.10
2018-12-10T00:20:32.616Z,6.10
2018-12-10T00:23:00.086Z,6.10
2018-12-10T00:25:28.300Z,6.00
2018-12-10T00:27:55.770Z,6.00
2018-12-10T00:30:23.273Z,5.90
2018-12-10T00:32:50.746Z,5.80
2018-12-10T00:35:18.177Z,5.80
2018-12-10T00:37:45.644Z,5.80
2018-12-10T00:40:13.215Z,5.80
2018-12-10T00:42:40.670Z,5.80
2018-12-10T00:45:08.147Z,5.80
2018-12-10T00:47:35.707Z,5.80
2018-12-10T00:50:03.909Z,5.90
2018-12-10T00:52:31.362Z,6.00
2018-12-10T00:54:59.608Z,6.30
2018-12-10T00:57:27.070Z,6.20
2018-12-10T00:59:54.563Z,6.40
2018-12-10T01:02:23.530Z,6.40
2018-12-10T01:04:51.003Z,6.40
2018-12-10T01:07:18.453Z,6.40
2018-12-10T01:09:45.935Z,6.30
2018-12-10T01:12:13.403Z,6.30
2018-12-10T01:14:40.852Z,6.40
2018-12-10T01:17:08.325Z,6.40
2018-12-10T01:19:35.893Z,6.40
2018-12-10T01:22:03.772Z,6.40
2018-12-10T01:24:31.226Z,6.40
2018-12-10T01:26:59.541Z,6.70
2018-12-10T01:29:26.938Z,6.70
2018-12-10T01:31:54.532Z,6.80
2018-12-10T01:34:21.994Z,6.80
2018-12-10T01:36:49.549Z,6.80
2018-12-10T01:39:17.029Z,6.70
2018-12-10T01:41:44.490Z,6.70
2018-12-10T01:44:11.966Z,6.60
2018-12-10T01:46:40.202Z,6.50
2018-12-10T01:49:07.674Z,6.50
2018-12-10T01:51:35.116Z,6.40
2018-12-10T01:54:02.600Z,6.30
2018-12-10T01:56:30.165Z,6.20
2018-12-10T01:58:57.641Z,6.10
2018-12-10T02:01:25.098Z,6.10
2018-12-10T02:03:52.571Z,6.00
2018-12-10T02:06:20.794Z,6.00
2018-12-10T02:08:48.293Z,6.00
2018-12-10T02:11:15.754Z,6.10
2018-12-10T02:13:43.325Z,6.10
2018-12-10T02:16:10.778Z,6.10
2018-12-10T02:18:38.254Z,6.00
2018-12-10T02:21:05.713Z,5.90
2018-12-10T02:23:33.266Z,5.80
2018-12-10T02:26:00.829Z,5.70
2018-12-10T02:28:33.969Z,5.70
2018-12-10T02:31:01.433Z,5.70
2018-12-10T02:33:28.898Z,5.70
2018-12-10T02:35:56.359Z,5.70
2018-12-10T02:38:23.816Z,5.80
2018-12-10T02:40:51.325Z,5.90
2018-12-10T02:43:18.771Z,6.00
2018-12-10T02:45:46.223Z,6.00
2018-12-10T02:48:13.674Z,5.90
2018-12-10T02:50:41.205Z,5.90
2018-12-10T02:53:08.658Z,5.90
2018-12-10T02:55:36.925Z,5.80
2018-12-10T02:58:04.384Z,5.80
2018-12-10T03:00:31.842Z,5.80
2018-12-10T03:03:00.805Z,5.70
2018-12-10T03:05:28.304Z,5.70
2018-12-10T03:07:55.849Z,5.80
2018-12-10T03:10:23.391Z,5.90
2018-12-10T03:12:50.849Z,6.00
2018-12-10T03:15:18.351Z,6.10
2018-12-10T03:17:45.914Z,6.00
2018-12-10T03:20:13.479Z,5.90
2018-12-10T03:22:41.690Z,5.80
2018-12-10T03:25:09.927Z,5.70
2018-12-10T03:27:37.397Z,5.70
2018-12-10T03:30:04.859Z,5.70
2018-12-10T03:32:33.132Z,5.50
2018-12-10T03:35:00.587Z,5.50
2018-12-10T03:37:28.046Z,5.50
2018-12-10T03:39:55.505Z,5.50
2018-12-10T03:42:22.981Z,5.50
2018-12-10T03:44:50.550Z,5.50
2018-12-10T03:47:18.824Z,5.70
2018-12-10T03:49:46.291Z,5.70
2018-12-10T03:52:14.300Z,5.70
2018-12-10T03:54:42.542Z,5.80
2018-12-10T03:57:10.089Z,5.80
2018-12-10T03:59:37.547Z,5.90
2018-12-10T04:02:05.003Z,5.90
2018-12-10T04:04:32.494Z,5.90
2018-12-10T04:07:01.449Z,5.90
2018-12-10T04:09:28.948Z,5.90
2018-12-10T04:11:56.411Z,5.90
2018-12-10T04:14:23.978Z,6.00
2018-12-10T04:16:51.456Z,6.10
2018-12-10T04:19:19.001Z,6.20
2018-12-10T04:21:46.477Z,6.20
2018-12-10T04:24:14.029Z,6.00
2018-12-10T04:26:41.597Z,6.10
2018-12-10T04:29:09.051Z,6.20
2018-12-10T04:31:36.627Z,6.30
2018-12-10T04:34:04.176Z,6.30
2018-12-10T04:36:32.780Z,6.40
2018-12-10T04:39:00.332Z,6.40
2018-12-10T04:41:27.773Z,6.40
2018-12-10T04:43:55.234Z,6.40
2018-12-10T04:46:22.707Z,6.60
2018-12-10T04:48:50.163Z,6.50
2018-12-10T04:51:17.625Z,6.60
2018-12-10T04:53:45.107Z,6.60
2018-12-10T04:56:14.064Z,6.60
2018-12-10T04:58:41.529Z,6.60
2018-12-10T05:01:08.994Z,6.70
2018-12-10T05:03:36.478Z,6.50
2018-12-10T05:06:03.968Z,6.50
2018-12-10T05:08:32.203Z,6.60
2018-12-10T05:10:59.711Z,6.50
2018-12-10T05:13:27.920Z,6.60
2018-12-10T05:15:55.391Z,6.60
2018-12-10T05:18:22.881Z,6.60
2018-12-10T05:20:50.323Z,6.60
2018-12-10T05:23:17.799Z,6.60
2018-12-10T05:25:45.253Z,6.60
2018-12-10T05:28:12.698Z,6.60
2018-12-10T05:30:40.171Z,6.50
2018-12-10T05:33:07.622Z,6.50
2018-12-10T05:35:35.133Z,6.50
2018-12-10T05:38:03.119Z,6.50
2018-12-10T05:40:30.571Z,6.50
2018-12-10T05:42:58.030Z,6.50
2018-12-10T05:45:25.569Z,6.60
2018-12-10T05:47:53.021Z,6.70
2018-12-10T05:50:20.504Z,6.70
2018-12-10T05:52:48.078Z,6.70
2018-12-10T05:55:15.528Z,6.70
2018-12-10T05:57:43.090Z,6.70
2018-12-10T06:00:10.561Z,6.70
2018-12-10T06:02:38.018Z,6.60
2018-12-10T06:05:05.493Z,6.60
2018-12-10T06:07:32.943Z,6.50
2018-12-10T06:10:00.389Z,6.50
2018-12-10T06:12:27.837Z,6.50
2018-12-10T06:14:55.323Z,6.50
2018-12-10T06:17:22.773Z,6.50
2018-12-10T06:19:50.996Z,6.50
2018-12-10T06:22:19.229Z,6.50
2018-12-10T06:24:46.697Z,6.50
2018-12-10T06:27:14.173Z,6.50
2018-12-10T06:29:41.788Z,6.50
2018-12-10T06:32:09.995Z,6.50
2018-12-10T06:34:37.457Z,6.50
2018-12-10T06:37:04.913Z,6.60
2018-12-10T06:39:32.384Z,6.50
2018-12-10T06:41:59.872Z,6.50
2018-12-10T06:44:27.344Z,6.40
2018-12-10T06:46:56.433Z,6.30
2018-12-10T06:49:23.990Z,6.30
2018-12-10T06:51:51.460Z,6.30
2018-12-10T06:54:19.003Z,6.30
2018-12-10T06:56:46.479Z,6.40
2018-12-10T06:59:14.046Z,6.50
2018-12-10T07:01:41.509Z,6.60
2018-12-10T07:04:08.979Z,6.70
2018-12-10T07:06:37.197Z,6.60
2018-12-10T07:09:04.703Z,6.60
2018-12-10T07:11:32.143Z,6.60
2018-12-10T07:13:59.589Z,6.60
2018-12-10T07:16:27.097Z,6.50
2018-12-10T07:18:55.357Z,6.30
2018-12-10T07:21:22.815Z,6.30
2018-12-10T07:23:50.299Z,6.30
2018-12-10T07:26:17.786Z,6.40
2018-12-10T07:28:46.059Z,6.30
2018-12-10T07:31:14.314Z,6.30
2018-12-10T07:33:41.792Z,6.30
2018-12-10T07:36:09.245Z,6.30
2018-12-10T07:38:36.729Z,6.40
2018-12-10T07:41:04.952Z,6.50
2018-12-10T07:43:32.404Z,6.50
2018-12-10T07:45:59.904Z,6.70
2018-12-10T07:48:27.367Z,6.70
2018-12-10T07:50:54.829Z,6.60
2018-12-10T07:53:22.303Z,6.60
2018-12-10T07:55:50.993Z,6.50
2018-12-10T07:58:18.493Z,6.50
2018-12-10T08:00:45.947Z,6.50
2018-12-10T08:03:13.420Z,6.40
2018-12-10T08:05:40.878Z,6.50
2018-12-10T08:08:08.387Z,6.50
2018-12-10T08:10:37.365Z,6.10
2018-12-10T08:13:04.851Z,6.10
2018-12-10T08:15:32.314Z,6.10
2018-12-10T08:17:59.782Z,6.00
2018-12-10T08:20:27.337Z,6.00
2018-12-10T08:22:54.815Z,6.10
2018-12-10T08:25:23.312Z,6.40
2018-12-10T08:27:51.315Z,6.50
2018-12-10T08:30:18.763Z,6.40
2018-12-10T08:32:46.230Z,6.40
2018-12-10T08:35:13.683Z,6.20
2018-12-10T08:37:41.199Z,6.10
2018-12-10T08:40:08.653Z,6.10
2018-12-10T08:42:36.229Z,6.10
2018-12-10T08:45:03.683Z,6.00
2018-12-10T08:47:31.241Z,6.00
2018-12-10T08:49:59.119Z,5.90
2018-12-10T08:52:26.593Z,6.00
2018-12-10T08:54:54.144Z,6.00
2018-12-10T08:57:21.601Z,6.00
2018-12-10T08:59:49.086Z,6.10
2018-12-10T09:02:17.338Z,6.30
2018-12-10T09:04:44.817Z,6.20
2018-12-10T09:07:12.272Z,6.30
2018-12-10T09:09:39.839Z,6.40
2018-12-10T09:12:07.299Z,6.30
2018-12-10T09:14:34.756Z,6.00
2018-12-10T09:17:02.204Z,5.80
2018-12-10T09:19:29.670Z,5.60
2018-12-10T09:21:57.122Z,5.60
2018-12-10T09:24:24.609Z,5.60
2018-12-10T09:26:52.071Z,5.60
2018-12-10T09:29:19.636Z,5.60
2018-12-10T09:31:47.920Z,5.60
2018-12-10T09:34:15.373Z,5.50
2018-12-10T09:36:42.815Z,5.50
2018-12-10T09:39:10.298Z,5.50
2018-12-10T09:41:37.861Z,5.50
2018-12-10T09:44:05.297Z,5.60
2018-12-10T09:46:32.790Z,5.70
2018-12-10T09:49:00.306Z,5.90
2018-12-10T09:51:28.538Z,6.20
2018-12-10T09:53:56.787Z,6.10
2018-12-10T09:56:24.242Z,6.00
2018-12-10T09:58:51.723Z,6.00
2018-12-10T10:01:19.244Z,5.90
2018-12-10T10:03:46.690Z,5.90
2018-12-10T10:06:14.912Z,6.00
2018-12-10T10:08:42.357Z,5.90
2018-12-10T10:11:09.824Z,6.00
2018-12-10T10:13:37.285Z,6.10
2018-12-10T10:16:04.788Z,6.20
2018-12-10T10:18:32.244Z,6.10
2018-12-10T10:20:59.806Z,6.20
2018-12-10T10:23:27.277Z,6.20
2018-12-10T10:25:55.505Z,6.30
2018-12-10T10:28:23.014Z,6.30
2018-12-10T10:30:50.485Z,6.50
2018-12-10T10:33:17.949Z,6.60
2018-12-10T10:35:45.485Z,6.80
2018-12-10T10:38:12.955Z,6.90
2018-12-10T10:40:40.427Z,7.00
2018-12-10T10:43:09.399Z,6.80
2018-12-10T10:45:36.854Z,6.80
2018-12-10T10:48:04.342Z,6.80
2018-12-10T10:50:31.828Z,6.70
2018-12-10T10:53:00.093Z,6.70
2018-12-10T10:55:27.638Z,6.60
2018-12-10T10:57:55.107Z,6.70
2018-12-10T11:00:29.250Z,6.70
2018-12-10T11:03:04.709Z,6.70
2018-12-10T11:05:32.157Z,6.70
2018-12-10T11:08:00.388Z,6.80
2018-12-10T11:10:27.846Z,6.70
2018-12-10T11:12:55.316Z,6.80
2018-12-10T11:15:22.783Z,6.90
2018-12-10T11:17:50.257Z,7.10
2018-12-10T11:20:19.227Z,7.10
2018-12-10T11:22:46.720Z,7.10
2018-12-10T11:25:14.181Z,7.00
2018-12-10T11:27:42.410Z,6.90
2018-12-10T11:30:09.871Z,7.00
2018-12-10T11:32:37.332Z,7.00
2018-12-10T11:35:04.783Z,7.00
2018-12-10T11:37:32.291Z,7.10
2018-12-10T11:39:59.749Z,7.20
2018-12-10T11:42:27.217Z,7.20
2018-12-10T11:44:54.779Z,7.20
2018-12-10T11:47:22.257Z,7.20
2018-12-10T11:49:49.797Z,7.20
2018-12-10T11:52:17.279Z,7.10
2018-12-10T11:54:44.740Z,6.90
2018-12-10T11:57:12.280Z,6.90
2018-12-10T11:59:39.762Z,6.90
2018-12-10T12:02:08.045Z,7.00
2018-12-10T12:04:35.617Z,7.00
2018-12-10T12:07:04.254Z,6.90
2018-12-10T12:09:32.626Z,6.90
2018-12-10T12:12:00.094Z,6.90
2018-12-10T12:14:27.562Z,6.90
2018-12-10T12:16:55.033Z,6.90
2018-12-10T12:19:22.497Z,6.90
2018-12-10T12:21:49.954Z,6.90
2018-12-10T12:24:17.408Z,7.00
2018-12-10T12:26:45.657Z,7.20
2018-12-10T12:29:12.356Z,7.30
2018-12-10T12:31:39.816Z,7.40
2018-12-10T12:34:07.279Z,7.50
2018-12-10T12:36:34.846Z,7.50
2018-12-10T12:39:02.308Z,7.30
2018-12-10T12:41:29.776Z,7.10
2018-12-10T12:43:57.227Z,6.80
2018-12-10T12:46:24.695Z,6.60
2018-12-10T12:48:52.258Z,6.50
2018-12-10T12:51:19.724Z,6.50
2018-12-10T12:53:47.238Z,6.50
2018-12-10T12:56:14.680Z,6.50
2018-12-10T12:58:42.905Z,6.60
2018-12-10T13:01:11.501Z,6.60
2018-12-10T13:03:38.975Z,6.70
2018-12-10T13:06:06.878Z,6.70
2018-12-10T13:08:34.718Z,6.80
2018-12-10T13:11:02.288Z,6.80
2018-12-10T13:13:29.853Z,6.80
2018-12-10T13:15:57.422Z,6.90
2018-12-10T13:18:24.894Z,7.00
2018-12-10T13:20:52.362Z,7.00
2018-12-10T13:23:20.618Z,7.10
2018-12-10T13:25:48.849Z,7.10
2018-12-10T13:28:16.362Z,7.00
2018-12-10T13:30:43.824Z,7.00
2018-12-10T13:33:11.285Z,7.00
2018-12-10T13:35:38.764Z,7.00
2018-12-10T13:38:12.343Z,7.10
2018-12-10T13:40:34.584Z,7.10
2018-12-10T13:43:02.058Z,7.20
2018-12-10T13:45:31.127Z,7.20
2018-12-10T13:47:57.775Z,7.30
2018-12-10T13:50:25.213Z,7.30
2018-12-10T13:52:52.677Z,7.20
2018-12-10T13:55:20.142Z,7.10
2018-12-10T13:57:47.612Z,7.10
2018-12-10T14:00:15.073Z,7.10
2018-12-10T14:02:42.562Z,7.10
2018-12-10T14:05:10.110Z,7.10
2018-12-10T14:07:37.587Z,7.10
2018-12-10T14:10:05.045Z,7.10
2018-12-10T14:12:34.019Z,7.10
2018-12-10T14:15:01.471Z,7.10
2018-12-10T14:17:28.917Z,7.20
2018-12-10T14:19:56.377Z,7.30
2018-12-10T14:22:23.846Z,7.20
2018-12-10T14:24:51.365Z,7.20
2018-12-10T14:27:18.838Z,7.20
2018-12-10T14:29:47.053Z,7.20
2018-12-10T14:32:14.502Z,7.20
2018-12-10T14:34:42.018Z,7.20
2018-12-10T14:37:09.578Z,7.10
2018-12-10T14:39:37.039Z,7.20
2018-12-10T14:42:04.502Z,7.10
2018-12-10T14:44:32.059Z,7.00
2018-12-10T14:46:59.512Z,7.00
2018-12-10T14:49:26.967Z,7.00
2018-12-10T14:51:54.446Z,7.10
2018-12-10T14:54:21.901Z,7.10
2018-12-10T14:56:50.179Z,7.00
2018-12-10T14:59:17.654Z,7.00
2018-12-10T15:01:45.121Z,6.90
2018-12-10T15:04:14.119Z,6.80
2018-12-10T15:06:41.580Z,6.80
2018-12-10T15:09:09.041Z,6.80
2018-12-10T15:11:36.508Z,6.70
2018-12-10T15:14:04.726Z,6.60
2018-12-10T15:16:32.194Z,6.60
2018-12-10T15:18:59.669Z,6.70
2018-12-10T15:21:27.135Z,6.60
2018-12-10T15:23:54.583Z,6.60
2018-12-10T15:26:22.042Z,6.60
2018-12-10T15:28:49.503Z,6.50
2018-12-10T15:31:17.009Z,6.50
2018-12-10T15:33:44.466Z,6.60
2018-12-10T15:36:11.936Z,6.50
2018-12-10T15:38:39.473Z,6.50
2018-12-10T15:41:06.933Z,6.50
2018-12-10T15:43:34.388Z,6.50
2018-12-10T15:46:01.891Z,6.60
2018-12-10T15:48:29.358Z,6.60
2018-12-10T15:50:58.334Z,6.80
2018-12-10T15:53:25.786Z,6.80
2018-12-10T15:55:53.254Z,6.90
2018-12-10T15:58:21.391Z,6.90
2018-12-10T16:00:48.861Z,6.80
2018-12-10T16:03:16.326Z,6.80
2018-12-10T16:05:43.817Z,6.70
2018-12-10T16:08:11.297Z,6.70
2018-12-10T16:10:38.742Z,6.70
2018-12-10T16:13:06.203Z,6.70
2018-12-10T16:15:33.666Z,6.70
2018-12-10T16:18:01.125Z,6.70
2018-12-10T16:20:28.693Z,6.70
2018-12-10T16:22:56.265Z,6.70
2018-12-10T16:25:23.742Z,6.70
2018-12-10T16:27:51.205Z,6.80
2018-12-10T16:30:18.661Z,6.80
2018-12-10T16:32:46.205Z,6.70
2018-12-10T16:35:13.879Z,6.70
2018-12-10T16:37:41.346Z,6.70
2018-12-10T16:40:10.331Z,6.70
2018-12-10T16:42:37.786Z,6.70
2018-12-10T16:45:05.254Z,6.70
2018-12-10T16:47:32.827Z,6.70
2018-12-10T16:50:01.080Z,6.60
2018-12-10T16:52:28.533Z,6.60
2018-12-10T16:54:56.000Z,6.60
2018-12-10T16:57:23.466Z,6.60
2018-12-10T16:59:50.926Z,6.60
2018-12-10T17:02:18.403Z,6.50
2018-12-10T17:04:45.871Z,6.40
2018-12-10T17:07:13.338Z,6.40
2018-12-10T17:09:41.569Z,6.40
2018-12-10T17:12:09.028Z,6.40
2018-12-10T17:14:36.492Z,6.50
2018-12-10T17:17:03.950Z,6.50
2018-12-10T17:19:31.412Z,6.50
2018-12-10T17:21:58.929Z,6.50
2018-12-10T17:24:26.377Z,6.50
2018-12-10T17:26:53.829Z,6.50
2018-12-10T17:29:21.286Z,6.50
2018-12-10T17:31:48.823Z,6.50
2018-12-10T17:34:16.334Z,6.50
2018-12-10T17:36:43.782Z,6.40
2018-12-10T17:39:11.348Z,6.40
2018-12-10T17:41:38.809Z,6.40
2018-12-10T17:44:06.279Z,6.50
2018-12-10T17:46:33.751Z,6.50
2018-12-10T17:49:01.193Z,6.50
2018-12-10T17:51:28.766Z,6.50
2018-12-10T17:53:56.234Z,6.50
2018-12-10T17:56:23.677Z,6.40
2018-12-10T17:58:52.954Z,6.40
2018-12-10T18:01:20.466Z,6.50
2018-12-10T18:03:47.950Z,6.60
2018-12-10T18:06:16.195Z,6.60
2018-12-10T18:08:43.649Z,6.60
2018-12-10T18:11:11.237Z,6.60
2018-12-10T18:13:38.694Z,6.50
2018-12-10T18:16:06.253Z,6.50
2018-12-10T18:18:33.716Z,6.50
2018-12-10T18:21:01.172Z,6.50
2018-12-10T18:23:28.741Z,6.50
2018-12-10T18:25:56.295Z,6.50
2018-12-10T18:28:23.745Z,6.40
2018-12-10T18:30:51.216Z,6.50
2018-12-10T18:33:18.677Z,6.40
2018-12-10T18:35:46.144Z,6.40
2018-12-10T18:38:13.710Z,6.30
2018-12-10T18:40:41.272Z,6.30
2018-12-10T18:43:08.733Z,6.30
2018-12-10T18:45:36.297Z,6.30
2018-12-10T18:48:04.684Z,6.40
2018-12-10T18:50:32.134Z,6.40
2018-12-10T18:52:59.617Z,6.40
2018-12-10T18:55:27.058Z,6.40
2018-12-10T18:57:54.521Z,6.40
2018-12-10T19:00:22.045Z,6.50
2018-12-10T19:02:49.558Z,6.50
2018-12-10T19:05:17.019Z,6.50
2018-12-10T19:07:45.289Z,6.50
2018-12-10T19:10:12.857Z,6.50
2018-12-10T19:12:40.324Z,6.50
2018-12-10T19:15:07.782Z,6.60
2018-12-10T19:17:35.355Z,6.70
2018-12-10T19:20:03.739Z,6.60
2018-12-10T19:22:32.051Z,6.50
2018-12-10T19:24:59.477Z,6.50
2018-12-10T19:27:26.944Z,6.50
2018-12-10T19:29:54.393Z,6.60
2018-12-10T19:32:21.952Z,6.60
2018-12-10T19:34:49.430Z,6.70
2018-12-10T19:37:18.424Z,6.80
2018-12-10T19:39:45.896Z,6.80
2018-12-10T19:42:13.453Z,6.90
2018-12-10T19:44:41.241Z,6.90
2018-12-10T19:47:09.465Z,6.80
2018-12-10T19:49:36.944Z,6.80
2018-12-10T19:52:04.431Z,6.80
2018-12-10T19:54:31.996Z,6.90
2018-12-10T19:56:59.479Z,6.90
2018-12-10T19:59:27.819Z,6.90
2018-12-10T20:01:55.269Z,6.90
2018-12-10T20:04:22.708Z,6.80
2018-12-10T20:06:55.845Z,6.80
2018-12-10T20:09:23.296Z,6.70
2018-12-10T20:11:50.749Z,6.70
2018-12-10T20:14:18.230Z,6.60
2018-12-10T20:16:45.790Z,6.60
2018-12-10T20:19:13.349Z,6.60
2018-12-10T20:21:40.926Z,6.50
2018-12-10T20:24:09.908Z,6.40
2018-12-10T20:26:37.545Z,6.40
2018-12-10T20:29:05.059Z,6.40
2018-12-10T20:31:32.559Z,6.40
2018-12-10T20:34:00.031Z,6.40
2018-12-10T20:36:27.530Z,6.40
2018-12-10T20:38:55.099Z,6.30
2018-12-10T20:41:23.326Z,6.40
2018-12-10T20:43:50.785Z,6.30
2018-12-10T20:46:18.245Z,6.40
2018-12-10T20:48:45.766Z,6.40
2018-12-10T20:51:13.986Z,6.40
2018-12-10T20:53:41.507Z,6.40
2018-12-10T20:56:08.969Z,6.40
2018-12-10T20:58:37.235Z,6.30
2018-12-10T21:01:04.709Z,6.30
2018-12-10T21:03:32.229Z,6.20
2018-12-10T21:06:05.359Z,6.00
2018-12-10T21:08:33.131Z,5.90
2018-12-10T21:11:00.598Z,5.80
2018-12-10T21:13:29.288Z,5.70
2018-12-10T21:15:56.749Z,5.60
2018-12-10T21:18:24.298Z,5.60
2018-12-10T21:20:51.762Z,5.50
2018-12-10T21:23:19.204Z,5.50
2018-12-10T21:25:46.675Z,5.40
2018-12-10T21:28:14.236Z,5.40
2018-12-10T21:30:41.710Z,5.30
2018-12-10T21:33:09.161Z,5.30
2018-12-10T21:35:36.737Z,5.20
2018-12-10T21:38:04.299Z,5.20
2018-12-10T21:40:31.764Z,5.20
2018-12-10T21:42:59.348Z,5.30
2018-12-10T21:45:26.805Z,5.30
2018-12-10T21:47:55.030Z,5.70
2018-12-10T21:50:22.513Z,5.60
2018-12-10T21:52:50.007Z,5.70
2018-12-10T21:55:17.536Z,5.70
2018-12-10T21:57:45.749Z,5.60
2018-12-10T22:00:13.967Z,5.60
2018-12-10T22:02:41.473Z,5.60
2018-12-10T22:05:08.925Z,5.60
2018-12-10T22:07:36.379Z,5.60
2018-12-10T22:10:04.658Z,5.80
2018-12-10T22:12:32.146Z,5.70
2018-12-10T22:14:59.607Z,5.80
2018-12-10T22:17:27.152Z,5.80
2018-12-10T22:19:54.605Z,5.80
2018-12-10T22:22:22.089Z,5.80
2018-12-10T22:24:49.578Z,5.80
2018-12-10T22:27:17.838Z,5.90
2018-12-10T22:29:45.298Z,5.90
2018-12-10T22:32:13.533Z,5.80
2018-12-10T22:34:40.993Z,5.80
2018-12-10T22:37:08.462Z,5.80
2018-12-10T22:39:35.931Z,5.80
2018-12-10T22:42:03.725Z,5.80
2018-12-10T22:44:31.193Z,5.70
2018-12-10T22:46:59.426Z,5.70
2018-12-10T22:49:26.893Z,5.70
2018-12-10T22:51:54.349Z,5.70
2018-12-10T22:54:21.809Z,5.80
2018-12-10T22:56:49.273Z,5.90
2018-12-10T22:59:16.724Z,6.00
2018-12-10T23:01:44.201Z,6.10
2018-12-10T23:04:11.723Z,6.00
2018-12-10T23:06:39.158Z,5.90
2018-12-10T23:09:06.625Z,5.80
2018-12-10T23:11:34.086Z,5.80
2018-12-10T23:14:01.535Z,5.80
2018-12-10T23:16:29.096Z,5.80
2018-12-10T23:18:56.557Z,5.80
2018-12-10T23:21:24.021Z,5.70
2018-12-10T23:23:51.619Z,5.80
2018-12-10T23:26:19.074Z,5.80
2018-12-10T23:28:46.546Z,5.80
2018-12-10T23:31:14.768Z,6.00
2018-12-10T23:33:42.234Z,6.00
2018-12-10T23:36:09.782Z,6.00
2018-12-10T23:38:37.278Z,5.90
2018-12-10T23:41:04.727Z,5.90
2018-12-10T23:43:32.205Z,5.90
2018-12-10T23:45:59.671Z,5.80
2018-12-10T23:48:27.231Z,5.80
2018-12-10T23:50:54.813Z,5.80
2018-12-10T23:53:22.270Z,5.80
2018-12-10T23:55:49.724Z,5.70
2018-12-10T23:58:17.295Z,5.70
